Aeroporto :
LOGIN :

Iscrizione | Disclaimer

   EN    FR    IT 

 










Sommario :    VFR   VFR Marginale   IFR   IFR Intensivo   IFR Molto Intensivo
Visibilità : 
Base nubi : 
>= 8 km
>= 3000ft
5 / 8 km
1000 / 3000 ft
1500m / 5 km
500 / 1000 ft
800 / 1500m
200 / 500 ft
< 800m
< 200 ft
Simboli :   Temporali  Nebbia  Neve Forte  Precipitazioni Forti  Vento > 20 kt
SIGMETs :   Varie  Temporali  Ghiacco  Turbolenza  Onda orograficha  Ceneri Vulcaniche






- Altitudine del aeroporto : 276 ft


LYVR - Vršac International

ULTIMO METAR :
  • 170030Z AUTO 13024KT CAVOK 09/M01 Q1026

METARs OBSOLETI :
  • 170000Z AUTO 13023G35KT CAVOK 09/M01 Q1026
  • 162330Z AUTO 13023G35KT CAVOK 09/M01 Q1026
  • 162300Z AUTO 13023G33KT CAVOK 09/M01 Q1027
  • 162230Z AUTO 13024KT 100V160 CAVOK 09/M01 Q1027
  • 162200Z AUTO 13022G32KT CAVOK 09/M01 Q1027

TAF TAF LYVR
Valido dal 17 a 00 ore il 18 a 00 ore UTC


162300Z 1700/1724 14015G30KT CAVOK TX15/1713Z TN05/1705Z
BECMG 1708/1710 23005KT



MetMap, La meteo Aeronautica in un colpo d'occhio ! - Copyright ORBIFLY Dicembre 2007 - Disclaimer

ORBIFLY MET'MAP TEAM :

Programmazione e sviluppo : Alexandra Zaïnal
Concezione : Baudouin d'Aumeries
Aiuto per la programmazione : Marc-Olivier Méhu
Supporto tecnico e logistico : Manuel Goepfert
Aiuto per la traduzione : Arnaldo La Scala

Contatto : metmap@orbifly.com




FONTI E CREDITI :

   NOAA